Time;durP1;ratioP1;P1;durP2;ratioP2;P2;SDS_P1;SDS_P2;PMS_P1;PMS_P2;Temp;Humidity;BMP_temperature;BMP_pressure;BME280_temperature;BME280_humidity;BME280_pressure;Samples;Min_cycle;Max_cycle;Signal;HPM_P1;HPM_P2
2023/05/16 00:00:24;;;;;;;;;;;15.40;99.90;;;;;;5032248;28;19928;-38
2023/05/16 00:02:50;;;;;;;;;;;15.40;99.90;;;;;;5032267;28;19905;-39
2023/05/16 00:05:16;;;;;;;;;;;15.40;99.90;;;;;;5032255;28;19912;-39
2023/05/16 00:07:43;;;;;;;;;;;15.50;99.90;;;;;;5031689;28;19905;-39
2023/05/16 00:10:08;;;;;;;;;;;15.50;99.90;;;;;;5032120;28;19909;-38
2023/05/16 00:12:35;;;;;;;;;;;15.40;99.90;;;;;;5032408;28;20393;-38
2023/05/16 00:15:01;;;;;;;;;;;15.50;99.90;;;;;;5032287;28;20286;-39
2023/05/16 00:17:27;;;;;;;;;;;15.50;99.90;;;;;;5032104;28;19916;-39
2023/05/16 00:19:57;;;;;;;;;;;15.40;99.90;;;;;;5032208;28;19905;-39
2023/05/16 00:22:25;;;;;;;;;;;15.50;99.90;;;;;;5037475;28;19990;-39
2023/05/16 00:24:51;;;;;;;;;;;15.50;99.90;;;;;;5038651;28;19958;-38
2023/05/16 00:27:16;;;;;;;;;;;15.50;99.90;;;;;;5038175;28;19930;-38
2023/05/16 00:29:42;;;;;;;;;;;15.40;99.90;;;;;;5037376;28;19905;-39
2023/05/16 00:32:08;;;;;;;;;;;15.40;99.90;;;;;;5038922;28;19974;-38
2023/05/16 00:34:34;;;;;;;;;;;15.40;99.90;;;;;;5038787;28;19932;-39
2023/05/16 00:36:59;;;;;;;;;;;15.40;99.90;;;;;;5038425;28;19931;-39
2023/05/16 00:39:25;;;;;;;;;;;15.40;99.90;;;;;;5038536;28;20353;-39
2023/05/16 00:41:51;;;;;;;;;;;15.40;99.90;;;;;;5038519;28;19909;-39
2023/05/16 00:44:16;;;;;;;;;;;15.50;99.90;;;;;;5038511;28;19904;-38
2023/05/16 00:46:42;;;;;;;;;;;15.40;99.90;;;;;;5037915;28;19966;-38
2023/05/16 00:49:08;;;;;;;;;;;15.40;99.90;;;;;;5038844;28;19996;-38
2023/05/16 00:51:34;;;;;;;;;;;15.40;99.90;;;;;;5038425;28;19905;-38
2023/05/16 00:53:59;;;;;;;;;;;15.40;99.90;;;;;;5038570;28;19905;-39
2023/05/16 00:56:25;;;;;;;;;;;15.40;99.90;;;;;;5038101;28;19912;-40
2023/05/16 00:58:50;;;;;;;;;;;15.40;99.90;;;;;;5038284;28;20286;-39
2023/05/16 01:01:17;;;;;;;;;;;15.40;99.90;;;;;;5038705;28;20003;-39
2023/05/16 01:03:44;;;;;;;;;;;15.40;99.90;;;;;;5038439;28;19905;-39
2023/05/16 01:06:11;;;;;;;;;;;15.40;99.90;;;;;;5037779;28;19905;-39
2023/05/16 01:08:36;;;;;;;;;;;15.40;99.90;;;;;;5038526;28;20358;-38
2023/05/16 01:11:07;;;;;;;;;;;15.40;99.90;;;;;;5038115;28;19912;-39
2023/05/16 01:13:56;;;;;;;;;;;15.40;99.90;;;;;;5038348;28;20362;-39
2023/05/16 01:16:25;;;;;;;;;;;15.40;99.90;;;;;;5037640;28;19909;-38
2023/05/16 01:19:00;;;;;;;;;;;15.40;99.90;;;;;;5038101;28;19991;-38
2023/05/16 01:21:48;;;;;;;;;;;15.40;99.90;;;;;;5038334;28;19975;-39
2023/05/16 01:24:21;;;;;;;;;;;15.40;99.90;;;;;;5038158;28;19905;-38
2023/05/16 01:26:47;;;;;;;;;;;15.40;99.90;;;;;;5037603;28;19912;-39
2023/05/16 01:29:13;;;;;;;;;;;15.30;99.90;;;;;;5038372;28;20234;-39
2023/05/16 01:31:39;;;;;;;;;;;15.30;99.90;;;;;;5038132;28;19959;-39
2023/05/16 01:34:04;;;;;;;;;;;15.40;99.90;;;;;;5034311;28;19909;-39
2023/05/16 01:36:33;;;;;;;;;;;15.40;99.90;;;;;;5034453;28;20333;-39
2023/05/16 01:38:58;;;;;;;;;;;15.30;99.90;;;;;;5034951;28;19957;-38
2023/05/16 01:41:25;;;;;;;;;;;15.30;99.90;;;;;;5035041;28;19921;-38
2023/05/16 01:43:53;;;;;;;;;;;15.30;99.90;;;;;;5035137;28;19905;-39
2023/05/16 01:46:24;;;;;;;;;;;15.30;99.90;;;;;;5033946;28;19905;-39
2023/05/16 01:49:08;;;;;;;;;;;15.40;99.90;;;;;;5034673;28;20408;-41
2023/05/16 01:51:36;;;;;;;;;;;15.40;99.90;;;;;;5033432;28;19912;-38
2023/05/16 01:54:04;;;;;;;;;;;15.40;99.90;;;;;;5034839;28;19905;-38
2023/05/16 01:56:31;;;;;;;;;;;15.30;99.90;;;;;;5034545;28;20354;-38
2023/05/16 01:58:57;;;;;;;;;;;15.30;99.90;;;;;;5034469;28;19916;-38
2023/05/16 02:01:23;;;;;;;;;;;15.30;99.90;;;;;;5034330;28;19975;-39
2023/05/16 02:03:49;;;;;;;;;;;15.30;99.90;;;;;;5034527;28;19927;-39
2023/05/16 02:06:15;;;;;;;;;;;15.30;99.90;;;;;;5033844;28;20358;-39
2023/05/16 02:08:40;;;;;;;;;;;15.30;99.90;;;;;;5034544;28;19960;-40
2023/05/16 02:11:06;;;;;;;;;;;15.30;99.90;;;;;;5034351;28;19905;-39
2023/05/16 02:13:32;;;;;;;;;;;15.30;99.90;;;;;;5034260;28;20016;-39
2023/05/16 02:15:57;;;;;;;;;;;15.30;99.90;;;;;;5033735;28;20278;-38
2023/05/16 02:18:23;;;;;;;;;;;15.30;99.90;;;;;;5034010;28;20018;-39
2023/05/16 02:20:49;;;;;;;;;;;15.30;99.90;;;;;;5034056;28;19904;-39
2023/05/16 02:23:15;;;;;;;;;;;15.30;99.90;;;;;;5034033;28;20358;-39
2023/05/16 02:25:40;;;;;;;;;;;15.30;99.90;;;;;;5034008;28;19996;-38
2023/05/16 02:28:06;;;;;;;;;;;15.30;99.90;;;;;;5034094;28;19905;-38
2023/05/16 02:30:31;;;;;;;;;;;15.30;99.90;;;;;;5033867;28;19927;-38
2023/05/16 02:32:57;;;;;;;;;;;15.30;99.90;;;;;;5034086;28;19913;-39
2023/05/16 02:35:23;;;;;;;;;;;15.30;99.90;;;;;;5033836;28;19905;-39
2023/05/16 02:37:48;;;;;;;;;;;15.30;99.90;;;;;;5033396;28;19915;-39
2023/05/16 02:40:14;;;;;;;;;;;15.20;99.90;;;;;;5033665;28;19921;-39
2023/05/16 02:42:39;;;;;;;;;;;15.20;99.90;;;;;;5033756;28;20366;-39
2023/05/16 02:45:05;;;;;;;;;;;15.30;99.90;;;;;;5032555;28;19974;-39
2023/05/16 02:47:30;;;;;;;;;;;15.30;99.90;;;;;;5033183;28;19948;-39
2023/05/16 02:49:56;;;;;;;;;;;15.20;99.90;;;;;;5033508;28;19945;-39
2023/05/16 02:52:21;;;;;;;;;;;15.20;99.90;;;;;;5033589;28;19950;-39
2023/05/16 02:54:47;;;;;;;;;;;15.20;99.90;;;;;;5034017;28;20051;-38
2023/05/16 02:57:13;;;;;;;;;;;15.20;99.90;;;;;;5033540;28;19909;-39
2023/05/16 02:59:38;;;;;;;;;;;15.20;99.90;;;;;;5033563;28;19936;-39
2023/05/16 03:02:04;;;;;;;;;;;15.20;99.90;;;;;;5033549;28;19913;-39
2023/05/16 03:04:29;;;;;;;;;;;15.20;99.90;;;;;;5033464;28;20003;-39
2023/05/16 03:06:55;;;;;;;;;;;15.20;99.90;;;;;;5033363;28;19928;-39
2023/05/16 03:09:20;;;;;;;;;;;15.20;99.90;;;;;;5033333;28;19940;-39
2023/05/16 03:11:46;;;;;;;;;;;15.20;99.90;;;;;;5033189;28;20384;-38
2023/05/16 03:14:11;;;;;;;;;;;15.20;99.90;;;;;;5033078;28;20341;-39
2023/05/16 03:16:37;;;;;;;;;;;15.20;99.90;;;;;;5032488;28;19911;-38
2023/05/16 03:19:03;;;;;;;;;;;15.20;99.90;;;;;;5033248;28;20015;-38
2023/05/16 03:21:29;;;;;;;;;;;15.20;99.90;;;;;;5032946;28;20350;-38
2023/05/16 03:23:54;;;;;;;;;;;15.20;99.90;;;;;;5032822;28;19916;-38
2023/05/16 03:26:21;;;;;;;;;;;15.20;99.90;;;;;;5032422;28;19912;-39
2023/05/16 03:28:47;;;;;;;;;;;15.20;99.90;;;;;;5032802;28;20004;-39
2023/05/16 03:31:12;;;;;;;;;;;15.20;99.90;;;;;;5031542;28;19984;-39
2023/05/16 03:33:38;;;;;;;;;;;15.20;99.90;;;;;;5032921;28;19954;-39
2023/05/16 03:36:04;;;;;;;;;;;15.20;99.90;;;;;;5032228;28;19917;-39
2023/05/16 03:38:29;;;;;;;;;;;15.20;99.90;;;;;;5032615;28;20274;-38
2023/05/16 03:40:55;;;;;;;;;;;15.20;99.90;;;;;;5032468;28;19917;-39
2023/05/16 03:43:20;;;;;;;;;;;15.20;99.90;;;;;;5032780;28;19948;-39
2023/05/16 03:45:46;;;;;;;;;;;15.20;99.90;;;;;;5032331;28;20058;-38
2023/05/16 03:48:11;;;;;;;;;;;15.20;99.90;;;;;;5032350;28;19976;-38
2023/05/16 03:50:37;;;;;;;;;;;15.20;99.90;;;;;;5032350;28;19905;-39
2023/05/16 03:53:03;;;;;;;;;;;15.20;99.90;;;;;;5032355;28;19932;-39
2023/05/16 03:55:29;;;;;;;;;;;15.20;99.90;;;;;;5031971;28;19905;-39
2023/05/16 03:57:55;;;;;;;;;;;15.20;99.90;;;;;;5031887;28;19909;-38
2023/05/16 04:00:21;;;;;;;;;;;15.20;99.90;;;;;;5032282;28;19951;-38
2023/05/16 04:02:46;;;;;;;;;;;15.20;99.90;;;;;;5032393;28;20286;-38
2023/05/16 04:05:12;;;;;;;;;;;15.20;99.90;;;;;;5032288;28;20420;-39
2023/05/16 04:07:38;;;;;;;;;;;15.20;99.90;;;;;;5031677;28;20325;-39
2023/05/16 04:10:04;;;;;;;;;;;15.20;99.90;;;;;;5032385;28;19905;-39
2023/05/16 04:12:29;;;;;;;;;;;15.20;99.90;;;;;;5032113;28;20023;-39
2023/05/16 04:14:55;;;;;;;;;;;15.20;99.90;;;;;;5032182;28;19916;-38
2023/05/16 04:17:20;;;;;;;;;;;15.20;99.90;;;;;;5031889;28;20286;-39
2023/05/16 04:19:46;;;;;;;;;;;15.10;99.90;;;;;;5032027;28;19963;-39
2023/05/16 04:22:11;;;;;;;;;;;15.10;99.90;;;;;;5032028;28;19905;-39
2023/05/16 04:24:37;;;;;;;;;;;15.20;99.90;;;;;;5032037;28;20362;-39
2023/05/16 04:27:03;;;;;;;;;;;15.20;99.90;;;;;;5031900;28;19971;-39
2023/05/16 04:29:30;;;;;;;;;;;15.20;99.90;;;;;;5031963;28;19950;-38
2023/05/16 04:31:55;;;;;;;;;;;15.10;99.90;;;;;;5032193;28;19912;-39
2023/05/16 04:34:22;;;;;;;;;;;15.10;99.90;;;;;;5031979;28;20281;-39
2023/05/16 04:36:47;;;;;;;;;;;15.10;99.90;;;;;;5032043;28;19905;-38
2023/05/16 04:39:12;;;;;;;;;;;15.10;99.90;;;;;;5032097;28;19905;-38
2023/05/16 04:41:38;;;;;;;;;;;15.10;99.90;;;;;;5031845;28;19940;-39
2023/05/16 04:44:04;;;;;;;;;;;15.10;99.90;;;;;;5031959;28;20227;-38
2023/05/16 04:46:29;;;;;;;;;;;15.10;99.90;;;;;;5030386;28;20277;-39
2023/05/16 04:48:55;;;;;;;;;;;15.10;99.90;;;;;;5031923;28;19992;-39
2023/05/16 04:51:20;;;;;;;;;;;15.10;99.90;;;;;;5031775;28;19905;-38
2023/05/16 04:53:46;;;;;;;;;;;15.10;99.90;;;;;;5031941;28;20378;-38
2023/05/16 04:56:12;;;;;;;;;;;15.10;99.90;;;;;;5031213;28;20000;-39
2023/05/16 04:58:37;;;;;;;;;;;15.10;99.90;;;;;;5031752;28;19964;-38
2023/05/16 05:01:03;;;;;;;;;;;15.10;99.90;;;;;;5031729;28;19975;-39
2023/05/16 05:03:28;;;;;;;;;;;15.10;99.90;;;;;;5031863;28;19905;-38
2023/05/16 05:05:54;;;;;;;;;;;15.10;99.90;;;;;;5031722;28;19905;-39
2023/05/16 05:08:20;;;;;;;;;;;15.10;99.90;;;;;;5032942;28;19905;-39
2023/05/16 05:10:46;;;;;;;;;;;15.10;99.90;;;;;;5035670;28;19905;-38
2023/05/16 05:13:11;;;;;;;;;;;15.10;99.90;;;;;;5035494;28;20051;-37
2023/05/16 05:15:37;;;;;;;;;;;15.10;99.90;;;;;;5035460;28;19972;-39
2023/05/16 05:18:03;;;;;;;;;;;15.10;99.90;;;;;;5034955;28;19916;-38
2023/05/16 05:20:28;;;;;;;;;;;15.10;99.90;;;;;;5035165;28;19905;-39
2023/05/16 05:22:54;;;;;;;;;;;15.10;99.90;;;;;;5035187;28;19960;-39
2023/05/16 05:25:19;;;;;;;;;;;15.10;99.90;;;;;;5035143;28;19909;-39
2023/05/16 05:27:45;;;;;;;;;;;15.10;99.90;;;;;;5034676;28;19905;-39
2023/05/16 05:30:10;;;;;;;;;;;15.10;99.90;;;;;;5035036;28;19933;-39
2023/05/16 05:32:36;;;;;;;;;;;15.10;99.90;;;;;;5034997;28;20269;-39
2023/05/16 05:35:02;;;;;;;;;;;15.10;99.90;;;;;;5035048;28;19975;-39
2023/05/16 05:37:28;;;;;;;;;;;15.10;99.90;;;;;;5034346;28;19909;-39
2023/05/16 05:39:54;;;;;;;;;;;15.10;99.90;;;;;;5034700;28;19924;-39
2023/05/16 05:42:20;;;;;;;;;;;15.10;99.90;;;;;;5034827;28;19909;-39
2023/05/16 05:44:45;;;;;;;;;;;15.10;99.90;;;;;;5033838;28;20426;-38
2023/05/16 05:47:11;;;;;;;;;;;15.10;99.90;;;;;;5034515;28;20350;-38
2023/05/16 05:49:37;;;;;;;;;;;15.10;99.90;;;;;;5034997;28;20012;-39
2023/05/16 05:52:02;;;;;;;;;;;15.10;99.90;;;;;;5034785;28;20153;-38
2023/05/16 05:54:29;;;;;;;;;;;15.10;99.90;;;;;;5034608;28;20000;-39
2023/05/16 05:56:55;;;;;;;;;;;15.10;99.90;;;;;;5033969;28;19979;-38
2023/05/16 05:59:21;;;;;;;;;;;15.10;99.90;;;;;;5034646;28;19916;-39
2023/05/16 06:01:51;;;;;;;;;;;15.10;99.90;;;;;;5034670;28;20342;-39
2023/05/16 06:04:17;;;;;;;;;;;15.10;99.90;;;;;;5034451;28;19906;-39
2023/05/16 06:06:42;;;;;;;;;;;15.10;99.90;;;;;;5034433;28;19905;-39
2023/05/16 06:09:08;;;;;;;;;;;15.10;99.90;;;;;;5034432;28;19912;-38
2023/05/16 06:11:33;;;;;;;;;;;15.10;99.90;;;;;;5034645;28;20520;-40
2023/05/16 06:13:59;;;;;;;;;;;15.10;99.90;;;;;;5034541;28;19905;-38
2023/05/16 06:16:25;;;;;;;;;;;15.10;99.90;;;;;;5034453;28;20366;-39
2023/05/16 06:18:50;;;;;;;;;;;15.00;99.90;;;;;;5033700;28;19913;-39
2023/05/16 06:21:16;;;;;;;;;;;15.00;99.90;;;;;;5034055;28;19905;-39
2023/05/16 06:23:41;;;;;;;;;;;15.10;99.90;;;;;;5034148;28;19909;-40
2023/05/16 06:26:07;;;;;;;;;;;15.10;99.90;;;;;;5033516;28;19909;-38
2023/05/16 06:28:32;;;;;;;;;;;15.10;99.90;;;;;;5034171;28;19905;-39
2023/05/16 06:30:58;;;;;;;;;;;15.10;99.90;;;;;;5033995;28;20384;-39
2023/05/16 06:33:23;;;;;;;;;;;15.00;99.90;;;;;;5033955;28;20346;-39
2023/05/16 06:35:49;;;;;;;;;;;15.00;99.90;;;;;;5034233;28;20370;-39
2023/05/16 06:38:15;;;;;;;;;;;15.10;99.90;;;;;;5033843;28;20414;-39
2023/05/16 06:40:40;;;;;;;;;;;15.10;99.90;;;;;;5033710;28;19913;-39
2023/05/16 06:43:06;;;;;;;;;;;15.10;99.90;;;;;;5033998;28;19958;-38
2023/05/16 06:45:31;;;;;;;;;;;15.00;99.90;;;;;;5034003;28;19905;-39
2023/05/16 06:47:57;;;;;;;;;;;15.00;99.90;;;;;;5033327;28;19913;-38
2023/05/16 06:50:22;;;;;;;;;;;15.10;99.90;;;;;;5033528;28;19909;-39
2023/05/16 06:52:48;;;;;;;;;;;15.00;99.90;;;;;;5033515;28;19908;-39
2023/05/16 06:55:13;;;;;;;;;;;15.00;99.90;;;;;;5033838;28;19906;-40
2023/05/16 06:57:39;;;;;;;;;;;15.00;99.90;;;;;;5032973;28;20358;-39
2023/05/16 07:00:05;;;;;;;;;;;15.00;99.90;;;;;;5033259;28;19944;-39
2023/05/16 07:02:31;;;;;;;;;;;15.00;99.90;;;;;;5033364;28;20362;-39
2023/05/16 07:04:57;;;;;;;;;;;15.00;99.90;;;;;;5033298;28;19905;-38
2023/05/16 07:07:22;;;;;;;;;;;15.10;99.90;;;;;;5033089;28;19905;-39
2023/05/16 07:09:47;;;;;;;;;;;15.00;99.90;;;;;;5033342;28;19905;-39
2023/05/16 07:12:13;;;;;;;;;;;15.10;99.90;;;;;;5033324;28;20196;-38
2023/05/16 07:14:39;;;;;;;;;;;15.10;99.90;;;;;;5033135;28;20370;-39
2023/05/16 07:17:05;;;;;;;;;;;15.00;99.90;;;;;;5032431;28;19941;-39
2023/05/16 07:19:30;;;;;;;;;;;15.00;99.90;;;;;;5032955;28;19948;-39
2023/05/16 07:21:56;;;;;;;;;;;15.10;99.90;;;;;;5033349;28;19928;-38
2023/05/16 07:24:22;;;;;;;;;;;15.00;99.90;;;;;;5033204;28;19905;-39
2023/05/16 07:26:47;;;;;;;;;;;15.00;99.90;;;;;;5032544;28;19908;-39
2023/05/16 07:29:13;;;;;;;;;;;15.00;99.90;;;;;;5032876;28;20354;-38
2023/05/16 07:31:38;;;;;;;;;;;15.00;99.90;;;;;;5032181;28;19916;-38
2023/05/16 07:34:04;;;;;;;;;;;15.00;99.90;;;;;;5032782;28;20325;-39
2023/05/16 07:36:30;;;;;;;;;;;15.00;99.90;;;;;;5032197;28;20353;-39
2023/05/16 07:38:55;;;;;;;;;;;15.00;99.90;;;;;;5032646;28;19913;-39
2023/05/16 07:41:21;;;;;;;;;;;15.00;99.90;;;;;;5033281;28;19917;-39
2023/05/16 07:43:46;;;;;;;;;;;15.00;99.90;;;;;;5032673;28;19906;-38
2023/05/16 07:46:13;;;;;;;;;;;15.00;99.90;;;;;;5032330;28;19905;-39
2023/05/16 07:48:38;;;;;;;;;;;15.00;99.90;;;;;;5032791;28;19905;-39
2023/05/16 07:51:04;;;;;;;;;;;15.00;99.90;;;;;;5033043;28;19963;-39
2023/05/16 07:53:29;;;;;;;;;;;15.00;99.90;;;;;;5032532;28;19905;-38
2023/05/16 07:55:55;;;;;;;;;;;15.00;99.90;;;;;;5032065;28;19913;-39
2023/05/16 07:58:20;;;;;;;;;;;15.00;99.90;;;;;;5032165;28;19992;-39
2023/05/16 08:00:46;;;;;;;;;;;15.00;99.90;;;;;;5032218;28;20267;-39
2023/05/16 08:03:11;;;;;;;;;;;15.00;99.90;;;;;;5032442;28;20403;-39
2023/05/16 08:05:38;;;;;;;;;;;15.00;99.90;;;;;;5032255;28;19912;-39
2023/05/16 08:08:03;;;;;;;;;;;15.00;99.90;;;;;;5031754;28;19905;-38
2023/05/16 08:10:29;;;;;;;;;;;14.90;99.90;;;;;;5032090;28;19999;-39
2023/05/16 08:12:54;;;;;;;;;;;15.00;99.90;;;;;;5032259;28;19916;-39
2023/05/16 08:15:20;;;;;;;;;;;14.90;99.90;;;;;;5032423;28;19944;-38
2023/05/16 08:17:45;;;;;;;;;;;15.00;99.90;;;;;;5031662;28;19913;-38
2023/05/16 08:20:11;;;;;;;;;;;15.00;99.90;;;;;;5032228;28;19909;-38
2023/05/16 08:22:37;;;;;;;;;;;15.00;99.90;;;;;;5032191;28;20400;-39
2023/05/16 08:25:02;;;;;;;;;;;15.00;99.90;;;;;;5032136;28;19909;-39
2023/05/16 08:27:28;;;;;;;;;;;15.00;99.90;;;;;;5031598;28;19912;-38
2023/05/16 08:29:54;;;;;;;;;;;15.00;99.90;;;;;;5032025;28;19963;-39
2023/05/16 08:32:20;;;;;;;;;;;14.90;99.90;;;;;;5032222;28;20374;-38
2023/05/16 08:34:45;;;;;;;;;;;15.00;99.90;;;;;;5032022;28;19912;-39
2023/05/16 08:37:11;;;;;;;;;;;15.00;99.90;;;;;;5031347;28;20012;-40
2023/05/16 08:39:39;;;;;;;;;;;15.00;99.90;;;;;;5031797;28;19925;-38
2023/05/16 08:42:05;;;;;;;;;;;15.00;99.90;;;;;;5032844;28;19908;-39
2023/05/16 08:44:31;;;;;;;;;;;15.00;99.90;;;;;;5035850;28;20008;-38
2023/05/16 08:46:59;;;;;;;;;;;15.00;99.90;;;;;;5035401;28;19909;-41
2023/05/16 08:49:26;;;;;;;;;;;15.00;99.90;;;;;;5035899;28;19909;-38
2023/05/16 08:51:53;;;;;;;;;;;15.00;99.90;;;;;;5035826;28;19905;-38
2023/05/16 08:54:19;;;;;;;;;;;15.00;99.90;;;;;;5035777;28;19950;-39
2023/05/16 08:56:44;;;;;;;;;;;15.00;99.90;;;;;;5035770;28;19909;-39
2023/05/16 08:59:11;;;;;;;;;;;14.90;99.90;;;;;;5035683;28;19913;-39
2023/05/16 09:01:37;;;;;;;;;;;15.00;99.90;;;;;;5035522;28;19988;-39
2023/05/16 09:04:04;;;;;;;;;;;15.00;99.90;;;;;;5035545;28;19991;-39
2023/05/16 09:06:29;;;;;;;;;;;15.00;99.90;;;;;;5035390;28;20326;-39
2023/05/16 09:08:55;;;;;;;;;;;15.00;99.90;;;;;;5035662;28;19959;-39
2023/05/16 09:11:21;;;;;;;;;;;15.00;99.90;;;;;;5035188;28;19905;-38
2023/05/16 09:13:47;;;;;;;;;;;15.00;99.90;;;;;;5035389;28;20008;-38
2023/05/16 09:16:14;;;;;;;;;;;15.00;99.90;;;;;;5034908;28;19909;-38
2023/05/16 09:18:41;;;;;;;;;;;15.00;99.90;;;;;;5035217;28;20352;-39
2023/05/16 09:21:08;;;;;;;;;;;15.00;99.90;;;;;;5035338;28;19905;-39
2023/05/16 09:23:34;;;;;;;;;;;14.90;99.90;;;;;;5035222;28;19912;-39
2023/05/16 09:26:00;;;;;;;;;;;15.00;99.90;;;;;;5035139;28;20007;-38
2023/05/16 09:28:25;;;;;;;;;;;14.90;99.90;;;;;;5034882;28;20333;-38
2023/05/16 09:30:51;;;;;;;;;;;14.90;99.90;;;;;;5035013;28;19952;-40
2023/05/16 09:33:16;;;;;;;;;;;14.90;99.90;;;;;;5035035;28;19994;-38
2023/05/16 09:35:42;;;;;;;;;;;14.90;99.90;;;;;;5034755;28;19909;-38
2023/05/16 09:38:12;;;;;;;;;;;14.90;99.90;;;;;;5034534;28;19913;-38
2023/05/16 09:40:39;;;;;;;;;;;14.90;99.90;;;;;;5034693;28;20358;-39
2023/05/16 09:43:06;;;;;;;;;;;14.90;99.90;;;;;;5035252;28;19909;-39
2023/05/16 09:45:33;;;;;;;;;;;14.90;99.90;;;;;;5034752;28;19913;-38
2023/05/16 09:48:05;;;;;;;;;;;15.00;99.90;;;;;;5034343;28;19996;-39
2023/05/16 09:50:34;;;;;;;;;;;15.00;99.90;;;;;;5034835;28;19963;-39
2023/05/16 09:53:00;;;;;;;;;;;15.00;99.90;;;;;;5034495;28;19905;-39
2023/05/16 09:55:26;;;;;;;;;;;15.00;99.90;;;;;;5033946;28;19951;-38
2023/05/16 09:57:51;;;;;;;;;;;15.00;99.90;;;;;;5034016;28;20249;-39
2023/05/16 10:00:17;;;;;;;;;;;15.00;99.90;;;;;;5034721;28;19905;-39
2023/05/16 10:02:42;;;;;;;;;;;15.00;99.90;;;;;;5034433;28;20420;-38
2023/05/16 10:05:08;;;;;;;;;;;15.00;99.90;;;;;;5034364;28;19912;-42
2023/05/16 10:07:34;;;;;;;;;;;15.00;99.90;;;;;;5033768;28;19905;-38
2023/05/16 10:10:00;;;;;;;;;;;15.00;99.90;;;;;;5034423;28;19913;-39
2023/05/16 10:12:28;;;;;;;;;;;15.00;99.90;;;;;;5034315;28;19908;-38
2023/05/16 10:14:55;;;;;;;;;;;15.00;99.90;;;;;;5034329;28;19958;-39
2023/05/16 10:17:21;;;;;;;;;;;15.00;99.90;;;;;;5033644;28;19913;-38
2023/05/16 10:19:47;;;;;;;;;;;15.00;99.90;;;;;;5034110;28;20372;-41
2023/05/16 10:22:13;;;;;;;;;;;15.00;99.90;;;;;;5034137;28;19912;-39
2023/05/16 10:24:57;;;;;;;;;;;15.00;99.90;;;;;;5034132;28;20281;-38
2023/05/16 10:27:23;;;;;;;;;;;15.00;99.90;;;;;;5033562;28;20392;-38
2023/05/16 10:29:50;;;;;;;;;;;15.00;99.90;;;;;;5033981;28;19905;-38
2023/05/16 10:32:15;;;;;;;;;;;15.00;99.90;;;;;;5033968;28;19945;-38
2023/05/16 10:34:41;;;;;;;;;;;15.00;99.90;;;;;;5033938;28;19905;-39
2023/05/16 10:37:07;;;;;;;;;;;15.00;99.90;;;;;;5032656;28;20277;-39
2023/05/16 10:39:33;;;;;;;;;;;15.00;99.90;;;;;;5033703;28;19959;-39
2023/05/16 10:41:59;;;;;;;;;;;15.00;99.90;;;;;;5033794;28;19912;-39
2023/05/16 10:44:25;;;;;;;;;;;15.00;99.90;;;;;;5034093;28;20317;-39
2023/05/16 10:46:50;;;;;;;;;;;15.00;99.90;;;;;;5033538;28;19905;-39
2023/05/16 10:49:23;;;;;;;;;;;15.00;99.90;;;;;;5034051;28;19905;-39
2023/05/16 10:52:01;;;;;;;;;;;15.00;99.90;;;;;;5033713;28;19908;-39
2023/05/16 10:54:32;;;;;;;;;;;15.00;99.90;;;;;;5033587;28;19911;-39
2023/05/16 10:57:02;;;;;;;;;;;15.10;99.90;;;;;;5033004;28;20023;-39
2023/05/16 10:59:28;;;;;;;;;;;15.00;99.90;;;;;;5033775;28;20282;-39
2023/05/16 11:01:54;;;;;;;;;;;15.10;99.90;;;;;;5033801;28;19905;-39
2023/05/16 11:04:20;;;;;;;;;;;15.10;99.90;;;;;;5033295;28;19909;-39
2023/05/16 11:06:48;;;;;;;;;;;15.10;99.90;;;;;;5032679;28;19929;-39
2023/05/16 11:09:18;;;;;;;;;;;15.10;99.90;;;;;;5033153;28;19948;-40
2023/05/16 11:11:50;;;;;;;;;;;15.10;99.90;;;;;;5033191;28;19905;-38
2023/05/16 11:14:28;;;;;;;;;;;15.00;99.90;;;;;;5033348;28;19968;-39
2023/05/16 11:17:05;;;;;;;;;;;15.10;99.90;;;;;;5032436;28;19912;-38
2023/05/16 11:19:41;;;;;;;;;;;15.10;99.90;;;;;;5032964;28;19987;-39
2023/05/16 11:22:07;;;;;;;;;;;15.10;99.90;;;;;;5033424;28;19905;-39
2023/05/16 11:24:33;;;;;;;;;;;15.00;99.90;;;;;;5033220;28;20343;-39
2023/05/16 11:27:00;;;;;;;;;;;15.10;99.90;;;;;;5032296;28;19905;-39
2023/05/16 11:29:30;;;;;;;;;;;15.00;99.90;;;;;;5032781;28;19905;-38
2023/05/16 11:31:57;;;;;;;;;;;15.10;99.90;;;;;;5032806;28;19909;-39
2023/05/16 11:34:22;;;;;;;;;;;15.10;99.90;;;;;;5032887;28;19954;-38
2023/05/16 11:36:48;;;;;;;;;;;15.10;99.90;;;;;;5032276;28;19905;-39
2023/05/16 11:39:14;;;;;;;;;;;15.10;99.90;;;;;;5032690;28;19909;-39
2023/05/16 11:41:39;;;;;;;;;;;15.10;99.90;;;;;;5031250;28;19927;-39
2023/05/16 11:44:05;;;;;;;;;;;15.00;99.90;;;;;;5032696;28;19916;-42
2023/05/16 11:46:32;;;;;;;;;;;15.10;99.90;;;;;;5032732;28;19994;-39
2023/05/16 11:48:58;;;;;;;;;;;15.10;99.90;;;;;;5032487;28;19992;-39
2023/05/16 11:51:23;;;;;;;;;;;15.10;99.90;;;;;;5032412;28;19967;-39
2023/05/16 11:53:49;;;;;;;;;;;15.10;99.90;;;;;;5032568;28;19905;-38
2023/05/16 11:56:15;;;;;;;;;;;15.10;99.90;;;;;;5031923;28;20007;-39
2023/05/16 11:58:41;;;;;;;;;;;15.10;99.90;;;;;;5032431;28;20255;-42
2023/05/16 12:01:07;;;;;;;;;;;15.10;99.90;;;;;;5032578;28;20314;-39
2023/05/16 12:03:34;;;;;;;;;;;15.10;99.90;;;;;;5032319;28;19905;-38
2023/05/16 12:05:59;;;;;;;;;;;15.00;99.90;;;;;;5032011;28;19909;-36
2023/05/16 12:08:25;;;;;;;;;;;15.00;99.90;;;;;;5032174;28;19909;-38
2023/05/16 12:10:52;;;;;;;;;;;15.10;99.90;;;;;;5032088;28;19905;-38
2023/05/16 12:13:21;;;;;;;;;;;15.00;99.90;;;;;;5032234;28;19905;-39
2023/05/16 12:15:47;;;;;;;;;;;15.00;99.90;;;;;;5031909;28;19912;-39
2023/05/16 12:18:13;;;;;;;;;;;15.00;99.90;;;;;;5031476;28;20188;-39
2023/05/16 12:20:39;;;;;;;;;;;15.00;99.90;;;;;;5032232;28;19905;-39
2023/05/16 12:23:09;;;;;;;;;;;15.00;99.90;;;;;;5032205;28;19928;-38
2023/05/16 12:25:36;;;;;;;;;;;15.00;99.90;;;;;;5031963;28;19916;-39
2023/05/16 12:28:02;;;;;;;;;;;15.00;99.90;;;;;;5031648;28;20035;-38
2023/05/16 12:30:30;;;;;;;;;;;15.00;99.90;;;;;;5031935;28;19905;-38
2023/05/16 12:32:59;;;;;;;;;;;15.00;99.90;;;;;;5031959;28;19924;-38
2023/05/16 12:35:28;;;;;;;;;;;15.00;99.90;;;;;;5032050;28;19920;-40
2023/05/16 12:37:55;;;;;;;;;;;15.00;99.90;;;;;;5031313;28;19931;-39
2023/05/16 12:40:20;;;;;;;;;;;15.00;99.90;;;;;;5032016;28;19913;-38
2023/05/16 12:42:50;;;;;;;;;;;15.00;99.90;;;;;;5031890;28;19925;-40
2023/05/16 12:45:16;;;;;;;;;;;15.00;99.90;;;;;;5031858;28;20016;-39
2023/05/16 12:47:42;;;;;;;;;;;15.00;99.90;;;;;;5031678;28;19905;-40
2023/05/16 12:50:08;;;;;;;;;;;15.00;99.90;;;;;;5031793;28;19913;-39
2023/05/16 12:52:34;;;;;;;;;;;15.00;99.90;;;;;;5031698;28;19996;-38
2023/05/16 12:55:00;;;;;;;;;;;15.00;99.90;;;;;;5031981;28;19951;-39
2023/05/16 12:57:25;;;;;;;;;;;15.00;99.90;;;;;;5031158;28;19924;-38
2023/05/16 12:59:51;;;;;;;;;;;15.00;99.90;;;;;;5031691;28;19928;-38
2023/05/16 13:02:17;;;;;;;;;;;15.00;99.90;;;;;;5031697;28;20406;-38
2023/05/16 13:04:43;;;;;;;;;;;15.00;99.90;;;;;;5031719;28;19905;-39
2023/05/16 13:07:10;;;;;;;;;;;15.00;99.90;;;;;;5031017;28;19905;-37
2023/05/16 13:09:36;;;;;;;;;;;15.00;99.90;;;;;;5031714;28;19909;-38
2023/05/16 13:12:02;;;;;;;;;;;15.00;99.90;;;;;;5031772;28;19905;-39
2023/05/16 13:14:27;;;;;;;;;;;15.00;99.90;;;;;;5031858;28;19905;-38
2023/05/16 13:16:53;;;;;;;;;;;14.90;99.90;;;;;;5031067;28;19905;-39
2023/05/16 13:19:18;;;;;;;;;;;15.00;99.90;;;;;;5031948;28;19916;-39
2023/05/16 13:21:44;;;;;;;;;;;14.90;99.90;;;;;;5031444;28;19916;-39
2023/05/16 13:24:09;;;;;;;;;;;14.90;99.90;;;;;;5031533;28;20282;-39
2023/05/16 13:26:35;;;;;;;;;;;15.00;99.90;;;;;;5031598;28;19949;-39
2023/05/16 13:29:01;;;;;;;;;;;14.90;99.90;;;;;;5032099;28;19944;-39
2023/05/16 13:31:26;;;;;;;;;;;14.90;99.90;;;;;;5034932;28;19909;-38
2023/05/16 13:33:52;;;;;;;;;;;14.90;99.90;;;;;;5034987;28;19905;-39
2023/05/16 13:36:17;;;;;;;;;;;14.80;99.90;;;;;;5034349;28;19905;-39
2023/05/16 13:38:43;;;;;;;;;;;14.70;99.90;;;;;;5035088;28;19916;-39
2023/05/16 13:41:08;;;;;;;;;;;14.50;99.90;;;;;;5074025;22;19932;-44
2023/05/16 13:43:34;;;;;;;;;;;14.50;99.90;;;;;;5034931;28;19913;-44
2023/05/16 13:45:59;;;;;;;;;;;14.60;99.90;;;;;;5034274;28;19909;-42
2023/05/16 13:48:25;;;;;;;;;;;14.60;99.90;;;;;;5034690;28;19909;-42
2023/05/16 13:50:52;;;;;;;;;;;14.60;99.90;;;;;;5034669;28;20338;-43
2023/05/16 13:53:17;;;;;;;;;;;14.60;99.90;;;;;;5034807;28;19916;-43
2023/05/16 13:55:43;;;;;;;;;;;14.70;99.90;;;;;;5034499;28;20297;-44
2023/05/16 13:58:08;;;;;;;;;;;14.70;99.90;;;;;;5034384;28;19964;-44
2023/05/16 14:00:34;;;;;;;;;;;14.70;99.90;;;;;;5034507;28;20362;-43
2023/05/16 14:02:59;;;;;;;;;;;14.70;99.90;;;;;;5034529;28;19905;-44
2023/05/16 14:05:25;;;;;;;;;;;14.70;99.90;;;;;;5034522;28;19905;-45
2023/05/16 14:07:51;;;;;;;;;;;14.80;99.90;;;;;;5033956;28;19959;-44
2023/05/16 14:10:16;;;;;;;;;;;14.70;99.90;;;;;;5034373;28;19912;-43